Time;durP1;ratioP1;P1;durP2;ratioP2;P2;SDS_P1;SDS_P2;PMS_P1;PMS_P2;Temp;Humidity;BMP_temperature;BMP_pressure;BME280_temperature;BME280_humidity;BME280_pressure;Samples;Min_cycle;Max_cycle;Signal;HPM_P1;HPM_P2
2022/10/31 00:00:07;;;;;;;7.70;2.60;;;9.60;99.90;;;;;;5055176;28;20223;-70
2022/10/31 00:02:34;;;;;;;5.87;2.37;;;9.60;99.90;;;;;;5054356;28;20193;-69
2022/10/31 00:05:01;;;;;;;5.07;2.57;;;9.60;99.90;;;;;;5054848;28;20212;-69
2022/10/31 00:07:28;;;;;;;5.63;2.40;;;9.60;99.90;;;;;;5054735;28;20201;-69
2022/10/31 00:09:55;;;;;;;8.43;2.70;;;9.60;99.90;;;;;;5051812;28;20209;-69
2022/10/31 00:12:21;;;;;;;7.57;2.47;;;9.60;99.90;;;;;;5051405;28;20197;-70
2022/10/31 00:14:50;;;;;;;6.80;2.53;;;9.60;99.90;;;;;;5053902;28;20197;-69
2022/10/31 00:17:16;;;;;;;9.27;2.73;;;9.60;99.90;;;;;;5070666;28;20237;-69
2022/10/31 00:19:43;;;;;;;10.00;2.80;;;9.60;99.90;;;;;;5070571;28;20207;-69
2022/10/31 00:22:10;;;;;;;6.40;2.60;;;9.50;99.90;;;;;;5054164;28;20193;-69
2022/10/31 00:24:37;;;;;;;7.20;2.83;;;9.60;99.90;;;;;;5053951;28;20562;-69
2022/10/31 00:27:04;;;;;;;12.60;3.00;;;9.60;99.90;;;;;;5054535;28;20198;-70
2022/10/31 00:29:31;;;;;;;9.30;2.50;;;9.50;99.90;;;;;;5053298;28;20208;-68
2022/10/31 00:31:59;;;;;;;11.23;2.60;;;9.50;99.90;;;;;;5053203;28;20217;-69
2022/10/31 00:34:26;;;;;;;8.17;3.10;;;9.50;99.90;;;;;;5054157;28;20211;-70
2022/10/31 00:36:52;;;;;;;6.03;2.80;;;9.50;99.90;;;;;;5054002;28;20235;-68
2022/10/31 00:39:19;;;;;;;8.87;2.70;;;9.50;99.90;;;;;;5053871;28;20201;-69
2022/10/31 00:41:46;;;;;;;9.43;3.07;;;9.40;99.90;;;;;;5052097;28;20292;-69
2022/10/31 00:44:13;;;;;;;6.00;2.67;;;9.40;99.90;;;;;;5053943;28;20209;-69
2022/10/31 00:46:40;;;;;;;9.83;3.00;;;9.50;99.90;;;;;;5053860;28;20663;-69
2022/10/31 00:49:08;;;;;;;9.87;2.53;;;9.50;99.90;;;;;;5054194;28;20193;-70
2022/10/31 00:51:35;;;;;;;5.30;2.60;;;9.40;99.90;;;;;;5052935;28;20250;-69
2022/10/31 00:54:01;;;;;;;10.17;2.70;;;9.40;99.90;;;;;;5053636;28;20216;-70
2022/10/31 00:56:28;;;;;;;8.63;2.47;;;9.40;99.90;;;;;;5053297;28;20236;-69
2022/10/31 00:58:55;;;;;;;8.87;2.80;;;9.40;99.90;;;;;;5053808;28;20201;-69
2022/10/31 01:01:22;;;;;;;8.37;2.70;;;9.30;99.90;;;;;;5050574;28;21039;-69
2022/10/31 01:03:48;;;;;;;7.10;3.27;;;9.30;99.90;;;;;;5053846;28;20569;-69
2022/10/31 01:06:17;;;;;;;11.03;2.87;;;9.30;99.90;;;;;;5053603;28;20201;-69
2022/10/31 01:08:44;;;;;;;11.53;2.87;;;9.30;99.90;;;;;;5053986;28;20206;-68
2022/10/31 01:11:13;;;;;;;6.53;2.60;;;9.30;99.90;;;;;;5051850;28;20213;-69
2022/10/31 01:13:40;;;;;;;8.83;2.97;;;9.30;99.90;;;;;;5053021;28;20209;-70
2022/10/31 01:16:10;;;;;;;8.80;2.90;;;9.20;99.90;;;;;;5052915;28;20221;-69
2022/10/31 01:18:37;;;;;;;4.97;2.73;;;9.30;99.90;;;;;;5053434;28;20225;-70
2022/10/31 01:21:06;;;;;;;8.77;2.80;;;9.30;99.90;;;;;;5050986;28;20212;-69
2022/10/31 01:23:34;;;;;;;7.30;2.70;;;9.30;99.90;;;;;;5049075;28;20202;-69
2022/10/31 01:26:03;;;;;;;7.00;2.60;;;9.30;99.90;;;;;;5049834;28;20209;-69
2022/10/31 01:28:30;;;;;;;6.20;2.50;;;9.30;99.90;;;;;;5053017;28;20558;-69
2022/10/31 01:31:01;;;;;;;8.50;2.53;;;9.30;99.90;;;;;;5052969;28;20695;-69
2022/10/31 01:33:28;;;;;;;8.70;2.80;;;9.30;99.90;;;;;;5054003;28;20198;-68
2022/10/31 01:35:54;;;;;;;10.20;3.10;;;9.30;99.90;;;;;;5057536;28;20236;-69
2022/10/31 01:38:21;;;;;;;5.67;2.53;;;9.20;99.90;;;;;;5062132;28;20200;-68
2022/10/31 01:40:50;;;;;;;9.53;2.97;;;9.30;99.90;;;;;;5069940;28;20566;-68
2022/10/31 01:43:17;;;;;;;6.97;2.53;;;9.30;99.90;;;;;;5060674;28;20570;-71
2022/10/31 01:45:47;;;;;;;7.97;2.73;;;9.30;99.90;;;;;;5052990;28;20705;-69
2022/10/31 01:48:16;;;;;;;10.33;2.83;;;9.20;99.90;;;;;;5052316;28;20233;-68
2022/10/31 01:50:45;;;;;;;10.53;3.10;;;9.30;99.90;;;;;;5052887;28;20201;-68
2022/10/31 01:53:13;;;;;;;9.93;2.90;;;9.20;99.90;;;;;;5051415;28;20209;-69
2022/10/31 01:55:42;;;;;;;7.53;3.07;;;9.30;99.90;;;;;;5052530;28;20213;-68
2022/10/31 01:58:14;;;;;;;7.03;3.10;;;9.20;99.90;;;;;;5052594;28;20591;-70
2022/10/31 02:00:45;;;;;;;6.97;2.93;;;9.20;99.90;;;;;;5052805;28;20189;-69
2022/10/31 02:03:12;;;;;;;8.80;3.20;;;9.20;99.90;;;;;;5051648;28;20205;-69
2022/10/31 02:05:39;;;;;;;7.17;2.83;;;9.20;99.90;;;;;;5052705;28;20660;-69
2022/10/31 02:08:12;;;;;;;8.47;3.13;;;9.20;99.90;;;;;;5051934;28;20296;-69
2022/10/31 02:10:39;;;;;;;9.03;2.93;;;9.20;99.90;;;;;;5052277;28;20216;-69
2022/10/31 02:13:08;;;;;;;6.73;2.73;;;9.10;99.90;;;;;;5051347;28;20758;-67
2022/10/31 02:15:37;;;;;;;6.50;3.10;;;9.10;99.90;;;;;;5052334;28;20689;-68
2022/10/31 02:18:05;;;;;;;5.10;2.50;;;9.10;99.90;;;;;;5052100;28;20732;-69
2022/10/31 02:20:37;;;;;;;9.50;2.80;;;9.00;99.90;;;;;;5052455;28;20228;-69
2022/10/31 02:23:27;;;;;;;13.73;3.30;;;9.00;99.90;;;;;;5050792;28;20193;-69
2022/10/31 02:26:18;;;;;;;7.30;2.90;;;9.00;99.90;;;;;;5052014;28;20308;-68
2022/10/31 02:29:07;;;;;;;8.10;2.83;;;9.00;99.90;;;;;;5052303;28;20555;-68
2022/10/31 02:31:41;;;;;;;9.53;2.80;;;8.90;99.90;;;;;;5051716;28;20190;-68
2022/10/31 02:34:18;;;;;;;10.03;3.20;;;8.90;99.90;;;;;;5046737;28;20654;-68
2022/10/31 02:37:07;;;;;;;9.23;2.80;;;8.80;99.90;;;;;;5047557;28;20233;-69
2022/10/31 02:39:41;;;;;;;9.37;3.10;;;8.80;99.90;;;;;;5032065;28;20201;-69
2022/10/31 02:42:14;;;;;;;8.43;3.20;;;8.80;99.90;;;;;;5032069;28;20205;-68
2022/10/31 02:44:46;;;;;;;5.70;3.00;;;8.80;99.90;;;;;;5048284;28;20212;-68
2022/10/31 02:47:16;;;;;;;5.90;2.60;;;8.80;99.90;;;;;;5051137;28;20611;-68
2022/10/31 02:49:49;;;;;;;10.80;2.90;;;8.80;99.90;;;;;;5051984;28;20212;-69
2022/10/31 02:52:20;;;;;;;10.33;3.07;;;8.70;99.90;;;;;;5051770;28;20197;-70
2022/10/31 02:54:48;;;;;;;8.80;2.87;;;8.70;99.90;;;;;;5051066;28;20648;-68
2022/10/31 02:57:18;;;;;;;9.03;2.67;;;8.70;99.90;;;;;;5051578;28;20221;-68
2022/10/31 02:59:48;;;;;;;9.67;3.10;;;8.70;99.90;;;;;;5051708;28;20576;-68
2022/10/31 03:02:33;;;;;;;5.57;2.77;;;8.70;99.90;;;;;;5051636;28;20194;-69
2022/10/31 03:05:24;;;;;;;7.43;2.93;;;8.70;99.90;;;;;;5050077;28;20212;-69
2022/10/31 03:08:00;;;;;;;7.00;2.53;;;8.70;99.90;;;;;;5049221;28;20211;-68
2022/10/31 03:10:36;;;;;;;5.93;2.67;;;8.60;99.90;;;;;;5051820;28;20193;-68
2022/10/31 03:13:10;;;;;;;9.00;3.07;;;8.60;99.90;;;;;;5050711;28;20603;-69
2022/10/31 03:15:40;;;;;;;12.57;2.97;;;8.60;99.90;;;;;;5051657;28;20200;-69
2022/10/31 03:18:11;;;;;;;4.97;2.20;;;8.60;99.90;;;;;;5051534;28;20569;-71
2022/10/31 03:20:41;;;;;;;7.47;2.70;;;8.60;99.90;;;;;;5051800;28;20549;-72
2022/10/31 03:23:13;;;;;;;7.80;2.67;;;8.60;99.90;;;;;;5050386;28;20206;-69
2022/10/31 03:25:41;;;;;;;8.63;3.00;;;8.60;99.90;;;;;;5051790;28;20549;-68
2022/10/31 03:28:09;;;;;;;6.33;2.73;;;8.60;99.90;;;;;;5051320;28;20212;-69
2022/10/31 03:30:39;;;;;;;6.83;2.67;;;8.60;99.90;;;;;;5050779;28;20209;-68
2022/10/31 03:33:11;;;;;;;6.87;2.80;;;8.50;99.90;;;;;;5051729;28;20197;-68
2022/10/31 03:35:42;;;;;;;7.57;2.87;;;8.60;99.90;;;;;;5051073;28;20225;-70
2022/10/31 03:38:10;;;;;;;6.50;2.60;;;8.60;99.90;;;;;;5051314;28;20256;-70
2022/10/31 03:40:40;;;;;;;6.47;2.57;;;8.60;99.90;;;;;;5050500;28;20213;-69
2022/10/31 03:43:11;;;;;;;8.53;2.77;;;8.60;99.90;;;;;;5051252;28;20208;-69
2022/10/31 03:45:43;;;;;;;5.70;2.33;;;8.60;99.90;;;;;;5053314;28;20193;-68
2022/10/31 03:48:13;;;;;;;6.63;2.47;;;8.50;99.90;;;;;;5053788;28;20244;-72
2022/10/31 03:50:46;;;;;;;7.90;2.63;;;8.60;99.90;;;;;;5054896;28;20208;-69
2022/10/31 03:53:19;;;;;;;8.37;2.60;;;8.60;99.90;;;;;;5053642;28;20197;-68
2022/10/31 03:55:52;;;;;;;6.23;2.70;;;8.60;99.90;;;;;;5054887;28;20286;-70
2022/10/31 03:58:23;;;;;;;6.63;2.47;;;8.50;99.90;;;;;;5052731;28;20309;-71
2022/10/31 04:00:53;;;;;;;5.30;2.50;;;8.50;99.90;;;;;;5053605;28;20210;-71
2022/10/31 04:03:26;;;;;;;6.80;2.80;;;8.50;99.90;;;;;;5054756;28;20460;-68
2022/10/31 04:05:55;;;;;;;5.77;2.10;;;8.50;99.90;;;;;;5054606;28;20198;-68
2022/10/31 04:08:27;;;;;;;6.87;1.93;;;8.50;99.90;;;;;;5053669;28;20209;-69
2022/10/31 04:10:57;;;;;;;4.40;1.67;;;8.40;99.90;;;;;;5054451;28;20194;-69
2022/10/31 04:13:26;;;;;;;3.03;1.60;;;8.40;99.90;;;;;;5054329;28;20209;-69
2022/10/31 04:15:55;;;;;;;5.67;1.87;;;8.40;99.90;;;;;;5054059;28;20212;-69
2022/10/31 04:18:25;;;;;;;5.20;1.87;;;8.40;99.90;;;;;;5054330;28;20233;-69
2022/10/31 04:21:01;;;;;;;5.97;1.77;;;8.40;99.90;;;;;;5054006;28;20224;-70
2022/10/31 04:23:28;;;;;;;4.93;1.87;;;8.40;99.90;;;;;;5054330;28;20189;-69
2022/10/31 04:25:54;;;;;;;3.37;1.47;;;8.40;99.90;;;;;;5054254;28;20205;-70
2022/10/31 04:28:22;;;;;;;3.10;1.63;;;8.30;99.90;;;;;;5054395;28;20208;-68
2022/10/31 04:30:49;;;;;;;3.83;1.77;;;8.30;99.90;;;;;;5057976;28;20550;-69
2022/10/31 04:33:16;;;;;;;2.83;1.47;;;8.30;99.90;;;;;;5063264;28;20212;-70
2022/10/31 04:35:44;;;;;;;4.70;1.60;;;8.20;99.90;;;;;;5064795;28;20217;-70
2022/10/31 04:38:10;;;;;;;2.93;1.50;;;8.30;99.90;;;;;;5061882;28;20220;-69
2022/10/31 04:40:37;;;;;;;5.60;2.57;;;8.20;99.90;;;;;;5062225;28;20205;-68
2022/10/31 04:43:04;;;;;;;2.50;1.60;;;8.20;99.90;;;;;;5065291;28;20563;-68
2022/10/31 04:45:31;;;;;;;2.47;1.50;;;8.10;99.90;;;;;;5073910;28;20258;-70
2022/10/31 04:47:58;;;;;;;2.13;1.53;;;8.10;99.90;;;;;;5066949;28;20233;-68
2022/10/31 04:50:25;;;;;;;3.40;1.60;;;8.10;99.90;;;;;;5052919;28;20567;-70
2022/10/31 04:52:53;;;;;;;3.63;1.60;;;8.10;99.90;;;;;;5052404;28;20198;-70
2022/10/31 04:55:20;;;;;;;3.67;1.60;;;8.00;99.90;;;;;;5053213;28;20213;-68
2022/10/31 04:57:48;;;;;;;2.10;1.53;;;8.00;99.90;;;;;;5053363;28;20218;-68
2022/10/31 05:00:18;;;;;;;2.73;1.70;;;8.00;99.90;;;;;;5061796;28;20221;-69
2022/10/31 05:02:46;;;;;;;2.63;1.70;;;8.00;99.90;;;;;;5053725;28;20204;-69
2022/10/31 05:05:13;;;;;;;4.63;1.73;;;7.90;99.90;;;;;;5069357;28;20300;-69
2022/10/31 05:07:41;;;;;;;3.33;1.87;;;7.90;99.90;;;;;;5060868;28;20193;-69
2022/10/31 05:10:10;;;;;;;2.77;1.90;;;7.90;99.90;;;;;;5060927;28;20255;-70
2022/10/31 05:12:37;;;;;;;3.93;1.83;;;7.90;99.90;;;;;;5059989;28;20201;-70
2022/10/31 05:15:05;;;;;;;5.43;2.30;;;7.80;99.90;;;;;;5061215;28;20208;-69
2022/10/31 05:17:32;;;;;;;3.20;1.70;;;7.80;99.90;;;;;;5057405;28;20221;-68
2022/10/31 05:19:59;;;;;;;4.03;1.70;;;7.70;99.90;;;;;;5060646;28;20209;-70
2022/10/31 05:22:26;;;;;;;5.27;2.10;;;7.70;99.90;;;;;;5063937;28;20612;-71
2022/10/31 05:24:53;;;;;;;4.93;1.60;;;7.70;99.90;;;;;;5061774;28;20205;-70
2022/10/31 05:27:21;;;;;;;5.00;1.70;;;7.70;99.90;;;;;;5048685;28;20201;-70
2022/10/31 05:29:48;;;;;;;5.17;1.90;;;7.70;99.90;;;;;;5049893;28;20438;-69
2022/10/31 05:32:15;;;;;;;3.53;1.70;;;7.70;99.90;;;;;;5051617;28;20208;-70
2022/10/31 05:34:41;;;;;;;3.13;1.80;;;7.70;99.90;;;;;;5052882;28;20217;-69
2022/10/31 05:37:08;;;;;;;5.07;1.80;;;7.70;99.90;;;;;;5052866;28;20225;-68
2022/10/31 05:39:35;;;;;;;3.37;1.73;;;7.70;99.90;;;;;;5050447;28;20205;-69
2022/10/31 05:42:02;;;;;;;5.00;2.00;;;7.70;99.90;;;;;;5052363;28;20212;-69
2022/10/31 05:44:30;;;;;;;3.10;1.87;;;7.70;99.90;;;;;;5051740;28;20233;-71
2022/10/31 05:46:57;;;;;;;4.13;1.80;;;7.70;99.90;;;;;;5051961;28;20328;-69
2022/10/31 05:49:23;;;;;;;6.43;1.90;;;7.70;99.90;;;;;;5054315;28;20196;-71
2022/10/31 05:51:50;;;;;;;3.97;1.70;;;7.70;99.90;;;;;;5044376;28;20607;-70
2022/10/31 05:54:17;;;;;;;2.53;1.60;;;7.70;99.90;;;;;;5051085;28;20213;-70
2022/10/31 05:56:44;;;;;;;4.67;1.60;;;7.60;99.90;;;;;;5072537;28;20207;-73
2022/10/31 05:59:10;;;;;;;2.90;1.50;;;7.60;99.90;;;;;;5064347;28;20225;-68
2022/10/31 06:01:39;;;;;;;5.07;1.73;;;7.70;99.90;;;;;;5052274;28;20212;-70
2022/10/31 06:17:29;;;;;;;4.53;1.83;;;7.70;99.90;;;;;;5069005;27;1511315;-72
2022/10/31 06:19:55;;;;;;;2.73;1.60;;;8.10;99.90;;;;;;5101806;28;20204;-71
2022/10/31 06:22:22;;;;;;;3.80;1.70;;;8.10;99.90;;;;;;5099167;28;20286;-69
2022/10/31 06:24:49;;;;;;;7.50;1.70;;;8.10;99.90;;;;;;5099272;28;20560;-72
2022/10/31 06:27:16;;;;;;;7.43;2.00;;;8.00;99.90;;;;;;5099113;28;20207;-70
2022/10/31 06:29:43;;;;;;;2.37;1.73;;;8.00;99.90;;;;;;5098158;28;20667;-70
2022/10/31 06:32:11;;;;;;;3.73;1.80;;;8.00;99.90;;;;;;5099002;28;20210;-70
2022/10/31 06:34:40;;;;;;;8.97;1.90;;;8.00;99.90;;;;;;5098423;28;20200;-73
2022/10/31 06:37:07;;;;;;;4.67;1.90;;;8.00;99.90;;;;;;5103717;28;20203;-73
2022/10/31 06:39:34;;;;;;;3.23;1.77;;;8.00;99.90;;;;;;5101315;28;20244;-69
2022/10/31 06:42:01;;;;;;;6.73;1.80;;;8.00;99.90;;;;;;5099356;28;20204;-70
2022/10/31 06:44:28;;;;;;;5.27;1.80;;;8.00;99.90;;;;;;5105455;28;20589;-70
2022/10/31 06:46:55;;;;;;;4.90;2.10;;;8.00;99.90;;;;;;5102575;28;20819;-69
2022/10/31 06:49:21;;;;;;;6.13;2.20;;;7.90;99.90;;;;;;5081679;28;20224;-71
2022/10/31 06:51:50;;;;;;;4.67;2.30;;;8.00;99.90;;;;;;5078753;28;20231;-70
2022/10/31 06:54:17;;;;;;;6.70;2.10;;;8.00;99.90;;;;;;5079835;28;20204;-70
2022/10/31 06:56:47;;;;;;;4.57;2.00;;;8.00;99.90;;;;;;5075760;28;20200;-69
2022/10/31 06:59:14;;;;;;;4.23;1.90;;;8.00;99.90;;;;;;5078748;28;20196;-70
2022/10/31 07:01:41;;;;;;;3.27;1.80;;;8.00;99.90;;;;;;5079447;28;20208;-72
2022/10/31 07:04:11;;;;;;;4.73;1.80;;;8.00;99.90;;;;;;5081564;28;20208;-71
2022/10/31 07:06:38;;;;;;;5.97;1.70;;;8.00;99.90;;;;;;5078015;28;20222;-71
2022/10/31 07:09:06;;;;;;;5.70;1.67;;;8.00;99.90;;;;;;5079986;28;20209;-72
2022/10/31 07:11:33;;;;;;;8.37;1.63;;;8.00;99.90;;;;;;5077500;28;20299;-71
2022/10/31 07:14:00;;;;;;;3.37;1.60;;;8.00;99.90;;;;;;5077584;28;20192;-70
2022/10/31 07:16:27;;;;;;;3.90;1.70;;;8.00;99.90;;;;;;5073533;28;20232;-70
2022/10/31 07:18:54;;;;;;;4.60;2.00;;;8.00;99.90;;;;;;5061313;28;20212;-73
2022/10/31 07:21:20;;;;;;;4.87;2.40;;;8.10;99.90;;;;;;5067665;28;20204;-72
2022/10/31 07:23:48;;;;;;;2.30;1.60;;;8.10;99.90;;;;;;5073903;28;20209;-71
2022/10/31 07:26:17;;;;;;;4.73;1.83;;;8.00;99.90;;;;;;5072925;28;20777;-69
2022/10/31 07:28:43;;;;;;;4.47;2.07;;;8.10;99.90;;;;;;5073855;28;20225;-72
2022/10/31 07:31:10;;;;;;;3.53;2.03;;;8.10;99.90;;;;;;5073853;28;20211;-71
2022/10/31 07:33:37;;;;;;;6.37;1.80;;;8.10;99.90;;;;;;5071856;28;20224;-70
2022/10/31 07:36:04;;;;;;;2.20;1.43;;;8.10;99.90;;;;;;5074183;28;20204;-71
2022/10/31 07:38:31;;;;;;;4.70;1.67;;;8.10;99.90;;;;;;5067136;28;20209;-70
2022/10/31 07:40:57;;;;;;;5.33;3.00;;;8.10;99.90;;;;;;5070041;28;20205;-71
2022/10/31 07:43:26;;;;;;;1.87;1.40;;;8.10;99.90;;;;;;5074263;28;20204;-68
2022/10/31 07:45:53;;;;;;;2.73;1.70;;;8.20;99.90;;;;;;5070329;28;20253;-70
2022/10/31 07:48:20;;;;;;;3.00;1.63;;;8.20;99.90;;;;;;5073947;28;20220;-70
2022/10/31 07:50:47;;;;;;;4.43;1.60;;;8.20;99.90;;;;;;5073574;28;20208;-68
2022/10/31 07:53:15;;;;;;;5.57;2.30;;;8.30;99.90;;;;;;5074111;28;20702;-69
2022/10/31 07:55:42;;;;;;;3.37;1.60;;;8.30;99.90;;;;;;5073792;28;20205;-69
2022/10/31 07:58:10;;;;;;;3.23;1.40;;;8.30;99.90;;;;;;5071555;28;20692;-70
2022/10/31 08:01:02;;;;;;;4.07;1.60;;;8.30;99.90;;;;;;5069300;28;20204;-68
2022/10/31 08:03:29;;;;;;;2.87;1.50;;;8.30;99.90;;;;;;5063567;28;20213;-70
2022/10/31 08:05:57;;;;;;;3.30;1.67;;;8.30;99.90;;;;;;5073556;28;20220;-69
2022/10/31 08:08:24;;;;;;;4.37;1.70;;;8.20;99.90;;;;;;5073381;28;20227;-68
2022/10/31 08:10:50;;;;;;;6.90;1.60;;;8.30;99.90;;;;;;5073933;28;20205;-68
2022/10/31 08:13:17;;;;;;;2.33;1.33;;;8.30;99.90;;;;;;5073914;28;20210;-71
2022/10/31 08:15:49;;;;;;;3.17;1.30;;;8.40;99.90;;;;;;5065297;28;20213;-73
2022/10/31 08:18:17;;;;;;;3.70;1.33;;;8.40;99.90;;;;;;5061095;28;20224;-71
2022/10/31 08:20:44;;;;;;;4.13;1.30;;;8.40;99.90;;;;;;5068483;28;20566;-71
2022/10/31 08:23:13;;;;;;;1.40;1.30;;;8.40;99.90;;;;;;5069533;28;20208;-69
2022/10/31 08:25:40;;;;;;;4.70;1.80;;;8.40;99.90;;;;;;5062745;28;20568;-70
2022/10/31 08:28:09;;;;;;;2.77;1.80;;;8.50;99.90;;;;;;5064437;28;20223;-71
2022/10/31 08:30:37;;;;;;;3.73;1.87;;;8.50;99.90;;;;;;5068643;28;20208;-69
2022/10/31 08:33:06;;;;;;;1.87;1.40;;;8.60;99.90;;;;;;5053363;28;20206;-72
2022/10/31 08:35:34;;;;;;;4.33;1.90;;;8.60;99.90;;;;;;5054493;28;20223;-71
2022/10/31 08:38:01;;;;;;;2.10;1.60;;;8.70;99.90;;;;;;5053075;28;20685;-72
2022/10/31 08:40:32;;;;;;;3.57;1.50;;;8.70;99.90;;;;;;5057465;28;20204;-71
2022/10/31 08:43:00;;;;;;;3.50;1.30;;;8.70;99.90;;;;;;5073044;28;20193;-69
2022/10/31 08:45:27;;;;;;;2.57;1.60;;;8.80;99.90;;;;;;5073062;28;20569;-70
2022/10/31 08:47:58;;;;;;;3.53;1.40;;;8.80;99.90;;;;;;5062538;28;20197;-69
2022/10/31 08:50:25;;;;;;;4.40;1.50;;;8.80;99.90;;;;;;5068084;28;20204;-68
2022/10/31 08:52:53;;;;;;;1.90;1.30;;;8.90;99.90;;;;;;5055617;28;20697;-70
2022/10/31 08:55:20;;;;;;;2.70;1.40;;;8.90;99.90;;;;;;5057108;28;20197;-69
2022/10/31 08:57:47;;;;;;;2.43;1.40;;;8.90;99.90;;;;;;5072551;28;20209;-69
2022/10/31 09:00:14;;;;;;;3.70;1.53;;;9.00;99.90;;;;;;5072865;28;20561;-69
2022/10/31 09:02:41;;;;;;;4.07;1.60;;;9.00;99.90;;;;;;5072656;28;20202;-72
2022/10/31 09:05:08;;;;;;;2.70;1.30;;;9.00;99.90;;;;;;5072644;28;20689;-71
2022/10/31 09:07:35;;;;;;;5.63;1.60;;;9.10;99.90;;;;;;5072479;28;20223;-70
2022/10/31 09:10:03;;;;;;;6.27;1.40;;;9.10;99.90;;;;;;5068520;28;20207;-71
2022/10/31 09:12:30;;;;;;;4.03;1.50;;;9.10;99.90;;;;;;5070564;28;20208;-68
2022/10/31 09:14:57;;;;;;;3.50;1.50;;;9.10;99.90;;;;;;5060011;28;20216;-69
2022/10/31 09:17:24;;;;;;;3.73;1.50;;;9.20;99.90;;;;;;5072084;28;20727;-69
2022/10/31 09:19:50;;;;;;;3.00;1.20;;;9.20;99.90;;;;;;5071857;28;20303;-70
2022/10/31 09:22:17;;;;;;;1.97;1.37;;;9.20;99.90;;;;;;5072109;28;20192;-70
2022/10/31 09:24:44;;;;;;;3.00;2.17;;;9.20;99.90;;;;;;5072276;28;20224;-69
2022/10/31 09:27:12;;;;;;;3.73;1.30;;;9.30;99.90;;;;;;5071697;28;20235;-68
2022/10/31 09:29:39;;;;;;;3.63;1.27;;;9.30;99.90;;;;;;5071856;28;20211;-68
2022/10/31 09:32:05;;;;;;;4.50;1.30;;;9.30;99.90;;;;;;5071592;28;20208;-68
2022/10/31 09:34:32;;;;;;;3.97;1.20;;;9.40;99.90;;;;;;5071767;28;20216;-69
2022/10/31 09:36:59;;;;;;;1.77;1.30;;;9.40;99.90;;;;;;5071947;28;20205;-69
2022/10/31 09:39:26;;;;;;;2.70;1.40;;;9.50;99.90;;;;;;5069431;28;20209;-71
2022/10/31 09:42:26;;;;;;;5.93;1.30;;;9.50;99.90;;;;;;5069787;28;20205;-68
2022/10/31 09:45:02;;;;;;;1.97;1.37;;;9.50;99.90;;;;;;5070720;28;20213;-69
2022/10/31 09:47:40;;;;;;;4.10;1.27;;;9.50;99.90;;;;;;5071752;28;20218;-68
2022/10/31 09:50:15;;;;;;;2.77;1.33;;;9.50;99.90;;;;;;5071483;28;20189;-70
2022/10/31 09:52:47;;;;;;;4.60;1.47;;;9.60;99.90;;;;;;5070804;28;20584;-70
2022/10/31 09:55:17;;;;;;;3.27;1.20;;;9.60;99.90;;;;;;5071590;28;20645;-69
2022/10/31 09:57:47;;;;;;;1.17;1.07;;;9.60;99.90;;;;;;5071952;28;20189;-68
2022/10/31 10:00:18;;;;;;;1.63;1.10;;;9.70;99.90;;;;;;5072056;28;20531;-69
2022/10/31 10:02:50;;;;;;;2.03;1.40;;;9.70;99.90;;;;;;5070710;28;20209;-69
2022/10/31 10:05:22;;;;;;;2.13;1.27;;;9.70;99.90;;;;;;5070880;28;20205;-70
2022/10/31 10:08:00;;;;;;;3.43;1.23;;;9.80;99.90;;;;;;5071513;28;20228;-69
2022/10/31 10:10:38;;;;;;;3.90;1.40;;;9.80;99.90;;;;;;5071796;28;20199;-68
2022/10/31 10:13:30;;;;;;;2.63;1.30;;;9.80;99.90;;;;;;5071113;28;20189;-69
2022/10/31 10:16:32;;;;;;;3.77;1.50;;;9.80;99.90;;;;;;5071366;28;20240;-69
2022/10/31 10:19:12;;;;;;;5.87;1.20;;;9.70;99.90;;;;;;5050822;28;20262;-69
2022/10/31 10:21:51;;;;;;;5.60;1.40;;;9.80;99.90;;;;;;5070333;28;20286;-70
2022/10/31 10:24:31;;;;;;;3.87;1.50;;;9.70;99.90;;;;;;5070806;28;20557;-69
2022/10/31 10:27:09;;;;;;;2.13;1.20;;;9.70;99.90;;;;;;5071382;28;20213;-69
2022/10/31 10:29:45;;;;;;;3.30;1.20;;;9.80;99.90;;;;;;5071188;28;20196;-68
2022/10/31 10:32:18;;;;;;;1.77;1.10;;;9.80;99.90;;;;;;5071172;28;20199;-70
2022/10/31 10:34:51;;;;;;;1.53;1.10;;;9.90;99.90;;;;;;5069899;28;20201;-68
2022/10/31 10:37:26;;;;;;;4.20;1.40;;;9.90;99.90;;;;;;5070388;28;20208;-67
2022/10/31 10:39:56;;;;;;;5.13;1.50;;;10.00;99.90;;;;;;5070542;28;20585;-69
2022/10/31 10:48:10;;;;;;;2.40;1.30;;;10.00;99.90;;;;;;5070746;28;20212;-69
2022/10/31 10:50:43;;;;;;;2.20;1.27;;;10.00;99.90;;;;;;5071393;28;20192;-70
2022/10/31 10:53:31;;;;;;;2.00;1.33;;;10.00;99.90;;;;;;5069989;28;20196;-69
2022/10/31 10:56:05;;;;;;;7.43;1.40;;;10.00;99.90;;;;;;5055139;28;20566;-69
2022/10/31 10:58:31;;;;;;;1.00;1.00;;;10.00;99.90;;;;;;5055113;28;20197;-68
2022/10/31 11:01:00;;;;;;;5.20;1.17;;;10.10;99.90;;;;;;5055044;28;20567;-69
2022/10/31 11:03:26;;;;;;;2.17;1.23;;;10.20;99.90;;;;;;5055077;28;20205;-69
2022/10/31 11:05:56;;;;;;;6.10;1.47;;;10.20;99.90;;;;;;5054924;28;20211;-70
2022/10/31 11:08:27;;;;;;;2.20;1.00;;;10.20;99.90;;;;;;5062708;28;20678;-68
2022/10/31 11:10:59;;;;;;;2.50;1.30;;;10.30;99.90;;;;;;5074194;28;20212;-68
2022/10/31 11:13:27;;;;;;;1.20;1.13;;;10.20;99.90;;;;;;5074703;28;20204;-69
2022/10/31 11:15:59;;;;;;;5.47;1.33;;;10.20;99.80;;;;;;5074385;28;20706;-69
2022/10/31 11:18:30;;;;;;;2.63;1.20;;;10.20;99.10;;;;;;5074291;28;20670;-69
2022/10/31 11:20:58;;;;;;;7.40;1.40;;;10.30;99.10;;;;;;5075136;28;20644;-70
2022/10/31 11:23:26;;;;;;;4.40;1.43;;;10.40;99.00;;;;;;5074854;28;20207;-72
2022/10/31 11:25:56;;;;;;;3.27;1.20;;;10.40;98.80;;;;;;5074204;28;20201;-69
2022/10/31 11:28:24;;;;;;;2.97;1.23;;;10.50;98.40;;;;;;5065944;28;20221;-70
2022/10/31 11:30:54;;;;;;;2.03;1.20;;;10.50;98.30;;;;;;5070154;28;20585;-69
2022/10/31 11:33:27;;;;;;;2.70;1.30;;;10.50;98.60;;;;;;5070566;28;20190;-70
2022/10/31 11:35:55;;;;;;;2.13;1.30;;;10.50;98.70;;;;;;5054186;28;20267;-69
2022/10/31 11:38:25;;;;;;;4.90;1.17;;;10.50;98.80;;;;;;5057879;28;20193;-69
2022/10/31 11:40:54;;;;;;;1.63;1.30;;;10.50;98.50;;;;;;5062055;28;20683;-69
2022/10/31 11:43:22;;;;;;;3.13;1.60;;;10.60;98.60;;;;;;5074593;28;20614;-69
2022/10/31 11:45:49;;;;;;;7.57;1.43;;;10.60;97.60;;;;;;5071899;28;20559;-68
2022/10/31 11:48:19;;;;;;;3.60;1.30;;;10.60;97.20;;;;;;5070049;28;20221;-72
2022/10/31 11:50:50;;;;;;;1.90;1.10;;;10.60;96.80;;;;;;5073750;28;20613;-70
2022/10/31 11:53:21;;;;;;;2.53;1.20;;;10.60;97.10;;;;;;5065107;28;20197;-68
2022/10/31 11:56:00;;;;;;;2.57;1.20;;;10.60;97.20;;;;;;5071103;28;20652;-68
2022/10/31 11:58:27;;;;;;;1.40;1.17;;;10.60;96.70;;;;;;5062589;28;20203;-69
2022/10/31 12:00:56;;;;;;;2.53;1.23;;;10.60;96.70;;;;;;5068917;28;20204;-69
2022/10/31 12:03:49;;;;;;;2.93;1.20;;;10.60;96.40;;;;;;5054158;28;20212;-69
2022/10/31 12:06:21;;;;;;;2.23;1.60;;;10.60;96.50;;;;;;5067696;28;20209;-70
2022/10/31 12:08:49;;;;;;;5.27;1.50;;;10.60;96.90;;;;;;5056034;28;20204;-70
2022/10/31 12:11:37;;;;;;;3.27;1.23;;;10.60;96.70;;;;;;5053905;28;20197;-69
2022/10/31 12:14:14;;;;;;;3.37;1.50;;;10.60;96.60;;;;;;5056106;28;20209;-70
2022/10/31 12:16:49;;;;;;;4.43;1.40;;;10.60;96.50;;;;;;5062758;28;20286;-69
2022/10/31 12:19:22;;;;;;;3.00;1.30;;;10.60;96.90;;;;;;5072683;28;20296;-70
2022/10/31 12:22:08;;;;;;;2.67;1.20;;;10.70;97.10;;;;;;5072572;28;20204;-69
2022/10/31 12:24:50;;;;;;;3.03;1.30;;;10.70;97.00;;;;;;5071468;28;20667;-69
2022/10/31 12:27:27;;;;;;;3.80;1.30;;;10.80;97.00;;;;;;5073508;28;20215;-70
2022/10/31 12:30:10;;;;;;;2.57;1.40;;;10.80;96.80;;;;;;5073462;28;20642;-70
2022/10/31 12:32:48;;;;;;;1.33;1.20;;;10.80;96.70;;;;;;5073333;28;20195;-70
2022/10/31 12:35:30;;;;;;;4.03;1.43;;;10.80;96.20;;;;;;5073917;28;20569;-70
2022/10/31 12:38:20;;;;;;;5.93;1.40;;;10.80;95.70;;;;;;5073579;28;20189;-69
2022/10/31 12:41:06;;;;;;;2.43;1.30;;;10.80;95.70;;;;;;5072927;28;20208;-69
2022/10/31 12:43:43;;;;;;;3.03;1.40;;;10.70;95.60;;;;;;5073122;28;20635;-69
2022/10/31 12:46:18;;;;;;;5.43;1.50;;;10.70;95.40;;;;;;5072983;28;20672;-68
2022/10/31 12:49:22;;;;;;;2.33;1.20;;;10.70;95.20;;;;;;5072739;28;20566;-69
2022/10/31 12:51:59;;;;;;;3.60;1.20;;;10.60;95.20;;;;;;5072869;28;20189;-70
2022/10/31 12:54:43;;;;;;;3.77;1.30;;;10.70;95.30;;;;;;5072572;28;20263;-72
2022/10/31 12:57:23;;;;;;;1.73;1.23;;;10.60;95.40;;;;;;5073004;28;20276;-69
2022/10/31 12:59:54;;;;;;;2.40;1.27;;;10.60;95.70;;;;;;5072466;28;20212;-69
2022/10/31 13:02:26;;;;;;;2.20;1.20;;;10.60;94.90;;;;;;5073271;28;20602;-69
2022/10/31 13:04:57;;;;;;;1.90;1.03;;;10.60;94.20;;;;;;5072920;28;20203;-72
2022/10/31 13:07:29;;;;;;;1.10;1.10;;;10.60;94.60;;;;;;5072459;28;20208;-71
2022/10/31 13:10:03;;;;;;;1.40;1.30;;;10.60;95.20;;;;;;5072687;28;20203;-69
2022/10/31 13:12:33;;;;;;;1.53;1.23;;;10.60;95.40;;;;;;5072738;28;20247;-69
2022/10/31 13:15:05;;;;;;;5.20;1.20;;;10.60;94.80;;;;;;5071977;28;20204;-69
2022/10/31 13:17:35;;;;;;;4.70;1.63;;;10.60;94.90;;;;;;5072443;28;20236;-69
2022/10/31 13:20:16;;;;;;;2.63;1.37;;;10.60;94.90;;;;;;5073034;28;20208;-72
2022/10/31 13:22:47;;;;;;;1.87;1.60;;;10.60;94.70;;;;;;5071964;28;20188;-72
2022/10/31 13:25:17;;;;;;;3.63;1.77;;;10.60;94.90;;;;;;5072854;28;20627;-69
2022/10/31 13:27:51;;;;;;;4.67;1.40;;;10.60;95.00;;;;;;5072309;28;20234;-70
2022/10/31 13:30:21;;;;;;;2.07;1.30;;;10.50;94.50;;;;;;5072022;28;20221;-70